sensor_id;sensor_type;location;lat;lon;timestamp;pressure;altitude;pressure_sealevel;temperature;humidity
10014;BME280;45684;48.358;10.746;2022-08-24T00:01:11;96396.81;;;14.53;100.00
10014;BME280;45684;48.358;10.746;2022-08-24T00:03:42;96403.53;;;14.56;100.00
10014;BME280;45684;48.358;10.746;2022-08-24T00:06:13;96400.25;;;14.50;100.00
10014;BME280;45684;48.358;10.746;2022-08-24T00:08:41;96402.97;;;14.50;100.00
10014;BME280;45684;48.358;10.746;2022-08-24T00:11:10;96401.25;;;14.58;100.00
10014;BME280;45684;48.358;10.746;2022-08-24T00:13:38;96407.41;;;14.67;100.00
10014;BME280;45684;48.358;10.746;2022-08-24T00:16:07;96403.31;;;14.61;100.00
10014;BME280;45684;48.358;10.746;2022-08-24T00:18:35;96408.50;;;14.54;100.00
10014;BME280;45684;48.358;10.746;2022-08-24T00:21:05;96406.50;;;14.63;100.00
10014;BME280;45684;48.358;10.746;2022-08-24T00:23:34;96405.03;;;14.45;100.00
10014;BME280;45684;48.358;10.746;2022-08-24T00:26:03;96397.16;;;14.31;100.00
10014;BME280;45684;48.358;10.746;2022-08-24T00:28:31;96396.06;;;14.32;100.00
10014;BME280;45684;48.358;10.746;2022-08-24T00:30:59;96402.31;;;14.45;100.00
10014;BME280;45684;48.358;10.746;2022-08-24T00:33:28;96404.72;;;14.46;100.00
10014;BME280;45684;48.358;10.746;2022-08-24T00:35:58;96402.66;;;14.43;100.00
10014;BME280;45684;48.358;10.746;2022-08-24T00:38:27;96396.09;;;14.44;100.00
10014;BME280;45684;48.358;10.746;2022-08-24T00:40:55;96400.16;;;14.38;100.00
10014;BME280;45684;48.358;10.746;2022-08-24T00:43:24;96400.88;;;14.26;100.00
10014;BME280;45684;48.358;10.746;2022-08-24T00:46:02;96405.59;;;14.17;100.00
10014;BME280;45684;48.358;10.746;2022-08-24T00:48:38;96397.00;;;14.15;100.00
10014;BME280;45684;48.358;10.746;2022-08-24T00:51:12;96398.84;;;14.02;100.00
10014;BME280;45684;48.358;10.746;2022-08-24T00:53:45;96405.97;;;13.95;100.00
10014;BME280;45684;48.358;10.746;2022-08-24T00:56:18;96404.91;;;13.87;100.00
10014;BME280;45684;48.358;10.746;2022-08-24T00:58:53;96404.69;;;13.92;100.00
10014;BME280;45684;48.358;10.746;2022-08-24T01:01:23;96401.91;;;13.80;100.00
10014;BME280;45684;48.358;10.746;2022-08-24T01:03:53;96396.00;;;13.78;100.00
10014;BME280;45684;48.358;10.746;2022-08-24T01:06:23;96398.19;;;13.85;100.00
10014;BME280;45684;48.358;10.746;2022-08-24T01:08:52;96405.25;;;13.86;100.00
10014;BME280;45684;48.358;10.746;2022-08-24T01:11:25;96401.72;;;13.85;100.00
10014;BME280;45684;48.358;10.746;2022-08-24T01:14:01;96399.66;;;13.82;100.00
10014;BME280;45684;48.358;10.746;2022-08-24T01:16:29;96398.38;;;13.79;100.00
10014;BME280;45684;48.358;10.746;2022-08-24T01:19:21;96398.59;;;13.74;100.00
10014;BME280;45684;48.358;10.746;2022-08-24T01:22:04;96399.72;;;13.73;100.00
10014;BME280;45684;48.358;10.746;2022-08-24T01:24:35;96398.78;;;13.69;100.00
10014;BME280;45684;48.358;10.746;2022-08-24T01:27:03;96392.91;;;13.67;100.00
10014;BME280;45684;48.358;10.746;2022-08-24T01:29:36;96393.09;;;13.62;100.00
10014;BME280;45684;48.358;10.746;2022-08-24T01:32:06;96396.06;;;13.69;100.00
10014;BME280;45684;48.358;10.746;2022-08-24T01:34:34;96394.63;;;13.72;100.00
10014;BME280;45684;48.358;10.746;2022-08-24T01:37:03;96395.56;;;13.76;100.00
10014;BME280;45684;48.358;10.746;2022-08-24T01:39:35;96390.50;;;13.66;100.00
10014;BME280;45684;48.358;10.746;2022-08-24T01:42:05;96381.53;;;13.65;100.00
10014;BME280;45684;48.358;10.746;2022-08-24T01:44:35;96387.72;;;13.74;100.00
10014;BME280;45684;48.358;10.746;2022-08-24T01:47:05;96381.63;;;13.77;100.00
10014;BME280;45684;48.358;10.746;2022-08-24T01:49:36;96380.56;;;13.70;100.00
10014;BME280;45684;48.358;10.746;2022-08-24T01:52:04;96383.63;;;13.68;100.00
10014;BME280;45684;48.358;10.746;2022-08-24T01:54:34;96377.72;;;13.66;100.00
10014;BME280;45684;48.358;10.746;2022-08-24T01:57:02;96386.66;;;13.67;100.00
10014;BME280;45684;48.358;10.746;2022-08-24T01:59:31;96374.91;;;13.54;100.00
10014;BME280;45684;48.358;10.746;2022-08-24T02:02:02;96377.34;;;13.47;100.00
10014;BME280;45684;48.358;10.746;2022-08-24T02:04:32;96367.22;;;13.35;100.00
10014;BME280;45684;48.358;10.746;2022-08-24T02:07:01;96372.84;;;13.30;100.00
10014;BME280;45684;48.358;10.746;2022-08-24T02:09:30;96374.75;;;13.30;100.00
10014;BME280;45684;48.358;10.746;2022-08-24T02:12:01;96384.34;;;13.27;100.00
10014;BME280;45684;48.358;10.746;2022-08-24T02:14:34;96384.53;;;13.22;100.00
10014;BME280;45684;48.358;10.746;2022-08-24T02:17:04;96385.13;;;13.27;100.00
10014;BME280;45684;48.358;10.746;2022-08-24T02:19:32;96381.63;;;13.27;100.00
10014;BME280;45684;48.358;10.746;2022-08-24T02:22:00;96380.66;;;13.32;100.00
10014;BME280;45684;48.358;10.746;2022-08-24T02:24:28;96387.66;;;13.33;100.00
10014;BME280;45684;48.358;10.746;2022-08-24T02:26:57;96383.03;;;13.33;100.00
10014;BME280;45684;48.358;10.746;2022-08-24T02:29:26;96382.53;;;13.40;100.00
10014;BME280;45684;48.358;10.746;2022-08-24T02:31:54;96389.53;;;13.41;100.00
10014;BME280;45684;48.358;10.746;2022-08-24T02:34:23;96392.16;;;13.28;100.00
10014;BME280;45684;48.358;10.746;2022-08-24T02:36:51;96391.38;;;13.28;100.00
10014;BME280;45684;48.358;10.746;2022-08-24T02:39:20;96393.00;;;13.20;100.00
10014;BME280;45684;48.358;10.746;2022-08-24T02:41:50;96384.91;;;13.03;100.00
10014;BME280;45684;48.358;10.746;2022-08-24T02:44:19;96390.38;;;12.94;100.00
10014;BME280;45684;48.358;10.746;2022-08-24T02:46:48;96393.25;;;12.98;100.00
10014;BME280;45684;48.358;10.746;2022-08-24T02:49:17;96384.16;;;12.94;100.00
10014;BME280;45684;48.358;10.746;2022-08-24T02:51:47;96380.16;;;12.91;100.00
10014;BME280;45684;48.358;10.746;2022-08-24T02:54:18;96382.09;;;12.91;100.00
10014;BME280;45684;48.358;10.746;2022-08-24T02:56:49;96381.28;;;12.90;100.00
10014;BME280;45684;48.358;10.746;2022-08-24T02:59:18;96374.28;;;12.89;100.00
10014;BME280;45684;48.358;10.746;2022-08-24T03:01:49;96378.91;;;12.89;100.00
10014;BME280;45684;48.358;10.746;2022-08-24T03:04:19;96386.56;;;12.87;100.00
10014;BME280;45684;48.358;10.746;2022-08-24T03:06:47;96375.88;;;12.82;100.00
10014;BME280;45684;48.358;10.746;2022-08-24T03:09:16;96382.66;;;12.67;100.00
10014;BME280;45684;48.358;10.746;2022-08-24T03:11:44;96380.44;;;12.60;100.00
10014;BME280;45684;48.358;10.746;2022-08-24T03:14:12;96376.94;;;12.60;100.00
10014;BME280;45684;48.358;10.746;2022-08-24T03:16:41;96383.63;;;12.54;100.00
10014;BME280;45684;48.358;10.746;2022-08-24T03:19:11;96387.31;;;12.58;100.00
10014;BME280;45684;48.358;10.746;2022-08-24T03:21:41;96381.06;;;12.66;100.00
10014;BME280;45684;48.358;10.746;2022-08-24T03:24:10;96381.53;;;12.68;100.00
10014;BME280;45684;48.358;10.746;2022-08-24T03:26:38;96386.94;;;12.68;100.00
10014;BME280;45684;48.358;10.746;2022-08-24T03:29:10;96385.34;;;12.75;100.00
10014;BME280;45684;48.358;10.746;2022-08-24T03:31:38;96378.34;;;12.66;100.00
10014;BME280;45684;48.358;10.746;2022-08-24T03:34:06;96385.38;;;12.58;100.00
10014;BME280;45684;48.358;10.746;2022-08-24T03:36:35;96387.63;;;12.56;100.00
10014;BME280;45684;48.358;10.746;2022-08-24T03:39:03;96395.59;;;12.61;100.00
10014;BME280;45684;48.358;10.746;2022-08-24T03:41:31;96384.25;;;12.68;100.00
10014;BME280;45684;48.358;10.746;2022-08-24T03:44:03;96386.66;;;12.69;100.00
10014;BME280;45684;48.358;10.746;2022-08-24T03:46:34;96387.63;;;12.65;100.00
10014;BME280;45684;48.358;10.746;2022-08-24T03:49:04;96389.84;;;12.63;100.00
10014;BME280;45684;48.358;10.746;2022-08-24T03:51:33;96383.97;;;12.52;100.00
10014;BME280;45684;48.358;10.746;2022-08-24T03:54:07;96383.50;;;12.50;100.00
10014;BME280;45684;48.358;10.746;2022-08-24T03:56:36;96391.78;;;12.54;100.00
10014;BME280;45684;48.358;10.746;2022-08-24T03:59:05;96392.75;;;12.49;100.00
10014;BME280;45684;48.358;10.746;2022-08-24T04:01:37;96395.81;;;12.39;100.00
10014;BME280;45684;48.358;10.746;2022-08-24T04:04:06;96390.38;;;12.39;100.00
10014;BME280;45684;48.358;10.746;2022-08-24T04:06:36;96387.50;;;12.35;100.00
10014;BME280;45684;48.358;10.746;2022-08-24T04:09:07;96391.50;;;12.38;100.00
10014;BME280;45684;48.358;10.746;2022-08-24T04:11:38;96398.34;;;12.44;100.00
10014;BME280;45684;48.358;10.746;2022-08-24T04:14:07;96396.25;;;12.49;100.00
10014;BME280;45684;48.358;10.746;2022-08-24T04:16:57;96396.59;;;12.48;100.00
10014;BME280;45684;48.358;10.746;2022-08-24T04:19:32;96398.50;;;12.56;100.00
10014;BME280;45684;48.358;10.746;2022-08-24T04:22:00;96398.16;;;12.49;100.00
10014;BME280;45684;48.358;10.746;2022-08-24T04:24:29;96400.75;;;12.37;100.00
10014;BME280;45684;48.358;10.746;2022-08-24T04:26:57;96400.94;;;12.32;100.00
10014;BME280;45684;48.358;10.746;2022-08-24T04:29:25;96398.06;;;12.37;100.00
10014;BME280;45684;48.358;10.746;2022-08-24T04:31:53;96400.09;;;12.40;100.00
10014;BME280;45684;48.358;10.746;2022-08-24T04:34:22;96403.47;;;12.37;100.00
10014;BME280;45684;48.358;10.746;2022-08-24T04:36:50;96402.97;;;12.35;100.00
10014;BME280;45684;48.358;10.746;2022-08-24T04:39:17;96409.84;;;12.41;100.00
10014;BME280;45684;48.358;10.746;2022-08-24T04:42:10;96409.06;;;12.32;100.00
10014;BME280;45684;48.358;10.746;2022-08-24T04:44:40;96410.16;;;12.31;100.00
10014;BME280;45684;48.358;10.746;2022-08-24T04:47:08;96409.69;;;12.29;100.00
10014;BME280;45684;48.358;10.746;2022-08-24T04:49:38;96418.31;;;12.31;100.00
10014;BME280;45684;48.358;10.746;2022-08-24T04:52:06;96419.91;;;12.32;100.00
10014;BME280;45684;48.358;10.746;2022-08-24T04:54:35;96424.53;;;12.31;100.00
10014;BME280;45684;48.358;10.746;2022-08-24T04:57:10;96415.28;;;12.23;100.00
10014;BME280;45684;48.358;10.746;2022-08-24T04:59:44;96417.38;;;12.27;100.00
10014;BME280;45684;48.358;10.746;2022-08-24T05:02:12;96427.38;;;12.35;100.00
10014;BME280;45684;48.358;10.746;2022-08-24T05:04:40;96427.22;;;12.40;100.00
10014;BME280;45684;48.358;10.746;2022-08-24T05:07:08;96430.09;;;12.52;100.00
10014;BME280;45684;48.358;10.746;2022-08-24T05:09:39;96432.28;;;12.59;100.00
10014;BME280;45684;48.358;10.746;2022-08-24T05:12:08;96430.06;;;12.61;100.00
10014;BME280;45684;48.358;10.746;2022-08-24T05:14:40;96439.97;;;12.65;100.00
10014;BME280;45684;48.358;10.746;2022-08-24T05:17:08;96435.16;;;12.71;100.00
10014;BME280;45684;48.358;10.746;2022-08-24T05:19:36;96430.69;;;12.75;100.00
10014;BME280;45684;48.358;10.746;2022-08-24T05:22:04;96434.50;;;12.83;100.00
10014;BME280;45684;48.358;10.746;2022-08-24T05:24:32;96439.09;;;12.91;100.00
10014;BME280;45684;48.358;10.746;2022-08-24T05:27:00;96429.50;;;12.93;100.00
10014;BME280;45684;48.358;10.746;2022-08-24T05:29:28;96431.41;;;13.01;100.00
10014;BME280;45684;48.358;10.746;2022-08-24T05:32:00;96431.41;;;13.01;100.00
10014;BME280;45684;48.358;10.746;2022-08-24T05:34:30;96431.53;;;13.05;100.00
10014;BME280;45684;48.358;10.746;2022-08-24T05:36:58;96432.81;;;13.08;100.00
10014;BME280;45684;48.358;10.746;2022-08-24T05:39:40;96435.38;;;13.04;100.00
10014;BME280;45684;48.358;10.746;2022-08-24T05:42:08;96432.81;;;13.08;100.00
10014;BME280;45684;48.358;10.746;2022-08-24T05:44:43;96434.56;;;13.12;100.00
10014;BME280;45684;48.358;10.746;2022-08-24T05:47:12;96436.75;;;13.19;100.00
10014;BME280;45684;48.358;10.746;2022-08-24T05:49:40;96437.06;;;13.26;100.00
10014;BME280;45684;48.358;10.746;2022-08-24T05:52:09;96447.91;;;13.35;100.00
10014;BME280;45684;48.358;10.746;2022-08-24T05:54:37;96450.25;;;13.45;100.00
10014;BME280;45684;48.358;10.746;2022-08-24T05:57:08;96443.97;;;13.53;100.00
10014;BME280;45684;48.358;10.746;2022-08-24T05:59:43;96457.53;;;13.62;100.00
10014;BME280;45684;48.358;10.746;2022-08-24T06:02:16;96463.72;;;13.71;100.00
10014;BME280;45684;48.358;10.746;2022-08-24T06:04:45;96459.81;;;13.81;100.00
10014;BME280;45684;48.358;10.746;2022-08-24T06:07:13;96462.94;;;13.91;100.00
10014;BME280;45684;48.358;10.746;2022-08-24T06:09:46;96465.13;;;13.98;100.00
10014;BME280;45684;48.358;10.746;2022-08-24T06:12:14;96465.41;;;14.05;100.00
10014;BME280;45684;48.358;10.746;2022-08-24T06:14:45;96464.84;;;14.12;100.00
10014;BME280;45684;48.358;10.746;2022-08-24T06:17:19;96462.88;;;14.21;100.00
10014;BME280;45684;48.358;10.746;2022-08-24T06:19:49;96467.78;;;14.27;100.00
10014;BME280;45684;48.358;10.746;2022-08-24T06:22:17;96459.88;;;14.35;100.00
10014;BME280;45684;48.358;10.746;2022-08-24T06:24:45;96469.41;;;14.41;100.00
10014;BME280;45684;48.358;10.746;2022-08-24T06:27:31;96469.25;;;14.46;100.00
10014;BME280;45684;48.358;10.746;2022-08-24T06:30:01;96475.63;;;14.50;100.00
10014;BME280;45684;48.358;10.746;2022-08-24T06:32:49;96469.31;;;14.58;100.00
10014;BME280;45684;48.358;10.746;2022-08-24T06:35:25;96472.75;;;14.67;100.00
10014;BME280;45684;48.358;10.746;2022-08-24T06:37:55;96465.28;;;14.76;100.00
10014;BME280;45684;48.358;10.746;2022-08-24T06:40:23;96467.13;;;14.85;100.00
10014;BME280;45684;48.358;10.746;2022-08-24T06:42:52;96467.06;;;14.93;100.00
10014;BME280;45684;48.358;10.746;2022-08-24T06:45:41;96472.19;;;15.07;100.00
10014;BME280;45684;48.358;10.746;2022-08-24T06:48:13;96469.81;;;15.18;100.00
10014;BME280;45684;48.358;10.746;2022-08-24T06:50:42;96472.44;;;15.26;100.00
10014;BME280;45684;48.358;10.746;2022-08-24T06:53:10;96477.44;;;15.37;100.00
10014;BME280;45684;48.358;10.746;2022-08-24T06:55:44;96479.28;;;15.45;100.00
10014;BME280;45684;48.358;10.746;2022-08-24T06:58:12;96481.56;;;15.55;100.00
10014;BME280;45684;48.358;10.746;2022-08-24T07:00:40;96482.59;;;15.63;100.00
10014;BME280;45684;48.358;10.746;2022-08-24T07:03:09;96488.41;;;15.73;100.00
10014;BME280;45684;48.358;10.746;2022-08-24T07:05:50;96494.53;;;15.82;100.00
10014;BME280;45684;48.358;10.746;2022-08-24T07:08:39;96495.56;;;15.90;100.00
10014;BME280;45684;48.358;10.746;2022-08-24T07:11:08;96498.97;;;15.99;100.00
10014;BME280;45684;48.358;10.746;2022-08-24T07:13:37;96497.22;;;16.07;100.00
10014;BME280;45684;48.358;10.746;2022-08-24T07:16:06;96497.09;;;16.16;100.00
10014;BME280;45684;48.358;10.746;2022-08-24T07:18:36;96494.69;;;16.26;100.00
10014;BME280;45684;48.358;10.746;2022-08-24T07:21:09;96501.28;;;16.38;100.00
10014;BME280;45684;48.358;10.746;2022-08-24T07:23:48;96503.16;;;16.49;100.00
10014;BME280;45684;48.358;10.746;2022-08-24T07:26:19;96499.25;;;16.63;100.00
10014;BME280;45684;48.358;10.746;2022-08-24T07:28:52;96499.13;;;16.71;100.00
10014;BME280;45684;48.358;10.746;2022-08-24T07:31:21;96509.22;;;16.83;100.00
10014;BME280;45684;48.358;10.746;2022-08-24T07:34:00;96513.16;;;16.98;100.00
10014;BME280;45684;48.358;10.746;2022-08-24T07:36:29;96504.19;;;17.13;100.00
10014;BME280;45684;48.358;10.746;2022-08-24T07:38:58;96497.41;;;17.23;100.00
10014;BME280;45684;48.358;10.746;2022-08-24T07:41:27;96504.56;;;17.43;100.00
10014;BME280;45684;48.358;10.746;2022-08-24T07:44:17;96507.66;;;17.57;100.00
10014;BME280;45684;48.358;10.746;2022-08-24T07:46:45;96511.47;;;17.69;100.00
10014;BME280;45684;48.358;10.746;2022-08-24T07:49:14;96508.63;;;17.81;100.00
10014;BME280;45684;48.358;10.746;2022-08-24T07:52:04;96504.22;;;17.92;100.00
10014;BME280;45684;48.358;10.746;2022-08-24T07:54:33;96499.00;;;18.03;100.00
10014;BME280;45684;48.358;10.746;2022-08-24T07:57:01;96499.69;;;18.16;100.00
10014;BME280;45684;48.358;10.746;2022-08-24T07:59:32;96492.66;;;18.34;100.00
10014;BME280;45684;48.358;10.746;2022-08-24T08:02:00;96497.47;;;18.41;100.00
10014;BME280;45684;48.358;10.746;2022-08-24T08:04:28;96500.09;;;18.53;100.00
10014;BME280;45684;48.358;10.746;2022-08-24T08:06:58;96494.13;;;18.67;100.00
10014;BME280;45684;48.358;10.746;2022-08-24T08:09:31;96494.50;;;18.84;100.00
10014;BME280;45684;48.358;10.746;2022-08-24T08:11:59;96498.25;;;18.96;100.00
10014;BME280;45684;48.358;10.746;2022-08-24T08:14:28;96498.97;;;19.12;100.00
10014;BME280;45684;48.358;10.746;2022-08-24T08:16:56;96499.78;;;19.35;100.00
10014;BME280;45684;48.358;10.746;2022-08-24T08:19:24;96500.91;;;19.57;100.00
10014;BME280;45684;48.358;10.746;2022-08-24T08:21:52;96496.00;;;19.67;100.00
10014;BME280;45684;48.358;10.746;2022-08-24T08:24:58;96501.13;;;19.91;100.00
10014;BME280;45684;48.358;10.746;2022-08-24T08:27:26;96501.63;;;20.00;100.00
10014;BME280;45684;48.358;10.746;2022-08-24T08:29:53;96504.91;;;20.09;100.00
10014;BME280;45684;48.358;10.746;2022-08-24T08:32:21;96501.88;;;20.18;100.00
10014;BME280;45684;48.358;10.746;2022-08-24T08:34:49;96502.53;;;20.34;100.00
10014;BME280;45684;48.358;10.746;2022-08-24T08:37:17;96505.00;;;20.43;100.00
10014;BME280;45684;48.358;10.746;2022-08-24T08:39:45;96505.56;;;20.56;100.00
10014;BME280;45684;48.358;10.746;2022-08-24T08:42:39;96506.19;;;20.72;99.67
10014;BME280;45684;48.358;10.746;2022-08-24T08:45:23;96509.50;;;20.85;100.00
10014;BME280;45684;48.358;10.746;2022-08-24T08:48:48;96514.03;;;21.04;100.00
10014;BME280;45684;48.358;10.746;2022-08-24T08:51:54;96509.19;;;21.27;98.83
10014;BME280;45684;48.358;10.746;2022-08-24T08:54:32;96514.06;;;21.45;96.19
10014;BME280;45684;48.358;10.746;2022-08-24T08:57:41;96517.00;;;21.62;94.53
10014;BME280;45684;48.358;10.746;2022-08-24T09:00:16;96510.00;;;21.72;95.10
10014;BME280;45684;48.358;10.746;2022-08-24T09:06:28;96512.16;;;21.93;93.30
10014;BME280;45684;48.358;10.746;2022-08-24T09:09:14;96520.22;;;22.16;95.33
10014;BME280;45684;48.358;10.746;2022-08-24T09:11:56;96506.22;;;22.39;92.45
10014;BME280;45684;48.358;10.746;2022-08-24T09:14:55;96507.88;;;22.58;92.74
10014;BME280;45684;48.358;10.746;2022-08-24T09:17:35;96505.59;;;22.74;92.02
10014;BME280;45684;48.358;10.746;2022-08-24T09:20:18;96503.31;;;22.94;88.98
10014;BME280;45684;48.358;10.746;2022-08-24T09:23:02;96507.75;;;23.13;88.01
10014;BME280;45684;48.358;10.746;2022-08-24T09:25:40;96514.09;;;23.38;88.67
10014;BME280;45684;48.358;10.746;2022-08-24T09:28:29;96509.00;;;23.51;86.23
10014;BME280;45684;48.358;10.746;2022-08-24T09:31:37;96508.25;;;23.72;83.93
10014;BME280;45684;48.358;10.746;2022-08-24T09:34:17;96509.84;;;23.95;83.69
10014;BME280;45684;48.358;10.746;2022-08-24T09:36:52;96505.09;;;24.13;84.80
10014;BME280;45684;48.358;10.746;2022-08-24T09:39:37;96503.50;;;24.30;82.14
10014;BME280;45684;48.358;10.746;2022-08-24T09:42:40;96501.50;;;24.52;79.94
10014;BME280;45684;48.358;10.746;2022-08-24T09:45:28;96505.78;;;24.71;78.55
10014;BME280;45684;48.358;10.746;2022-08-24T09:51:27;96509.13;;;25.28;73.30
10014;BME280;45684;48.358;10.746;2022-08-24T09:54:23;96508.75;;;25.23;69.13
10014;BME280;45684;48.358;10.746;2022-08-24T09:57:20;96501.63;;;25.29;68.27
10014;BME280;45684;48.358;10.746;2022-08-24T10:00:15;96504.19;;;25.57;68.24
10014;BME280;45684;48.358;10.746;2022-08-24T10:05:55;96501.84;;;26.08;65.85
10014;BME280;45684;48.358;10.746;2022-08-24T10:08:37;96499.72;;;26.26;65.85
10014;BME280;45684;48.358;10.746;2022-08-24T10:11:17;96502.38;;;26.37;65.38
10014;BME280;45684;48.358;10.746;2022-08-24T10:13:54;96506.50;;;26.63;62.56
10014;BME280;45684;48.358;10.746;2022-08-24T10:16:37;96496.41;;;26.76;64.22
10014;BME280;45684;48.358;10.746;2022-08-24T10:19:17;96493.47;;;26.90;58.25
10014;BME280;45684;48.358;10.746;2022-08-24T10:21:59;96485.69;;;27.12;60.31
10014;BME280;45684;48.358;10.746;2022-08-24T10:24:45;96486.06;;;27.41;59.42
10014;BME280;45684;48.358;10.746;2022-08-24T10:27:30;96479.41;;;27.62;59.14
10014;BME280;45684;48.358;10.746;2022-08-24T10:30:31;96488.25;;;27.84;54.91
10014;BME280;45684;48.358;10.746;2022-08-24T10:33:13;96479.16;;;27.80;52.97
10014;BME280;45684;48.358;10.746;2022-08-24T10:35:59;96479.53;;;28.06;55.23
10014;BME280;45684;48.358;10.746;2022-08-24T10:38:33;96475.72;;;28.43;54.38
10014;BME280;45684;48.358;10.746;2022-08-24T10:44:47;96480.38;;;28.89;51.44
10014;BME280;45684;48.358;10.746;2022-08-24T10:47:21;96483.03;;;28.96;52.04
10014;BME280;45684;48.358;10.746;2022-08-24T10:50:15;96470.03;;;28.50;49.01
10014;BME280;45684;48.358;10.746;2022-08-24T10:52:56;96473.06;;;28.12;52.94
10014;BME280;45684;48.358;10.746;2022-08-24T10:55:32;96455.81;;;28.21;53.22
10014;BME280;45684;48.358;10.746;2022-08-24T10:58:29;96461.13;;;28.12;50.27
10014;BME280;45684;48.358;10.746;2022-08-24T11:01:16;96458.16;;;28.86;54.11
10014;BME280;45684;48.358;10.746;2022-08-24T11:03:51;96469.66;;;29.44;52.01
10014;BME280;45684;48.358;10.746;2022-08-24T11:06:21;96470.84;;;29.79;51.75
10014;BME280;45684;48.358;10.746;2022-08-24T11:08:53;96469.78;;;30.06;47.37
10014;BME280;45684;48.358;10.746;2022-08-24T11:11:25;96472.03;;;30.11;47.33
10014;BME280;45684;48.358;10.746;2022-08-24T11:14:00;96466.16;;;29.76;46.34
10014;BME280;45684;48.358;10.746;2022-08-24T11:16:33;96467.19;;;29.30;47.49
10014;BME280;45684;48.358;10.746;2022-08-24T11:19:07;96466.94;;;29.24;50.48
10014;BME280;45684;48.358;10.746;2022-08-24T11:21:40;96466.25;;;29.36;49.20
10014;BME280;45684;48.358;10.746;2022-08-24T11:24:25;96457.88;;;29.20;52.65
10014;BME280;45684;48.358;10.746;2022-08-24T11:26:58;96469.22;;;28.89;52.46
10014;BME280;45684;48.358;10.746;2022-08-24T11:29:31;96463.81;;;28.82;49.85
10014;BME280;45684;48.358;10.746;2022-08-24T11:32:30;96466.22;;;28.80;51.35
10014;BME280;45684;48.358;10.746;2022-08-24T11:35:05;96444.25;;;29.06;48.25
10014;BME280;45684;48.358;10.746;2022-08-24T11:37:35;96452.91;;;29.64;48.69
10014;BME280;45684;48.358;10.746;2022-08-24T11:40:05;96462.31;;;29.86;47.05
10014;BME280;45684;48.358;10.746;2022-08-24T11:42:49;96453.06;;;30.06;47.88
10014;BME280;45684;48.358;10.746;2022-08-24T11:45:23;96457.59;;;29.99;47.93
10014;BME280;45684;48.358;10.746;2022-08-24T11:48:02;96453.75;;;29.93;47.46
10014;BME280;45684;48.358;10.746;2022-08-24T11:50:40;96447.75;;;29.62;49.34
10014;BME280;45684;48.358;10.746;2022-08-24T11:53:19;96453.25;;;29.98;46.94
10014;BME280;45684;48.358;10.746;2022-08-24T11:55:54;96443.81;;;30.09;47.82
10014;BME280;45684;48.358;10.746;2022-08-24T11:58:37;96454.44;;;30.30;45.89
10014;BME280;45684;48.358;10.746;2022-08-24T12:01:13;96454.16;;;30.41;46.18
10014;BME280;45684;48.358;10.746;2022-08-24T12:04:08;96451.28;;;30.73;44.17
10014;BME280;45684;48.358;10.746;2022-08-24T12:06:48;96451.63;;;30.76;44.35
10014;BME280;45684;48.358;10.746;2022-08-24T12:09:37;96445.28;;;30.88;44.52
10014;BME280;45684;48.358;10.746;2022-08-24T12:12:14;96446.88;;;31.02;42.54
10014;BME280;45684;48.358;10.746;2022-08-24T12:14:48;96439.66;;;30.75;44.44
10014;BME280;45684;48.358;10.746;2022-08-24T12:17:27;96447.91;;;30.49;42.01
10014;BME280;45684;48.358;10.746;2022-08-24T12:20:02;96439.44;;;30.24;40.46
10014;BME280;45684;48.358;10.746;2022-08-24T12:22:31;96437.91;;;29.90;45.11
10014;BME280;45684;48.358;10.746;2022-08-24T12:25:02;96448.25;;;30.06;46.10
10014;BME280;45684;48.358;10.746;2022-08-24T12:27:52;96454.81;;;30.45;43.96
10014;BME280;45684;48.358;10.746;2022-08-24T12:30:21;96440.53;;;30.72;43.66
10014;BME280;45684;48.358;10.746;2022-08-24T12:32:52;96437.47;;;30.83;43.46
10014;BME280;45684;48.358;10.746;2022-08-24T12:35:27;96430.94;;;31.28;42.48
10014;BME280;45684;48.358;10.746;2022-08-24T12:38:00;96430.59;;;31.25;44.37
10014;BME280;45684;48.358;10.746;2022-08-24T12:40:33;96427.72;;;31.29;41.83
10014;BME280;45684;48.358;10.746;2022-08-24T12:43:04;96424.34;;;31.47;41.96
10014;BME280;45684;48.358;10.746;2022-08-24T12:45:34;96418.16;;;31.27;41.67
10014;BME280;45684;48.358;10.746;2022-08-24T12:48:09;96414.94;;;31.41;43.74
10014;BME280;45684;48.358;10.746;2022-08-24T12:50:52;96420.97;;;31.52;42.08
10014;BME280;45684;48.358;10.746;2022-08-24T12:53:42;96420.75;;;31.46;40.60
10014;BME280;45684;48.358;10.746;2022-08-24T12:59:19;96419.31;;;31.67;40.71
10014;BME280;45684;48.358;10.746;2022-08-24T13:01:57;96425.78;;;30.71;41.75
10014;BME280;45684;48.358;10.746;2022-08-24T13:04:33;96410.44;;;31.05;41.95
10014;BME280;45684;48.358;10.746;2022-08-24T13:07:07;96419.13;;;30.53;43.68
10014;BME280;45684;48.358;10.746;2022-08-24T13:09:38;96429.31;;;30.30;44.13
10014;BME280;45684;48.358;10.746;2022-08-24T13:12:45;96422.22;;;29.80;45.55
10014;BME280;45684;48.358;10.746;2022-08-24T13:15:24;96419.25;;;29.87;46.88
10014;BME280;45684;48.358;10.746;2022-08-24T13:17:56;96412.28;;;29.95;46.78
10014;BME280;45684;48.358;10.746;2022-08-24T13:20:51;96410.31;;;30.25;46.42
10014;BME280;45684;48.358;10.746;2022-08-24T13:23:20;96408.53;;;30.89;45.80
10014;BME280;45684;48.358;10.746;2022-08-24T13:25:54;96406.22;;;31.26;46.03
10014;BME280;45684;48.358;10.746;2022-08-24T13:28:38;96410.13;;;31.29;42.95
10014;BME280;45684;48.358;10.746;2022-08-24T13:31:18;96412.56;;;31.01;41.76
10014;BME280;45684;48.358;10.746;2022-08-24T13:33:51;96413.78;;;30.87;43.69
10014;BME280;45684;48.358;10.746;2022-08-24T13:36:40;96413.09;;;30.25;45.56